Time;durP1;ratioP1;P1;durP2;ratioP2;P2;SDS_P1;SDS_P2;PMS_P1;PMS_P2;Temp;Humidity;BMP_temperature;BMP_pressure;BME280_temperature;BME280_humidity;BME280_pressure;Samples;Min_cycle;Max_cycle;Signal;HPM_P1;HPM_P2
2021/06/24 00:01:53;;;;;;;2.55;0.50;;;14.90;99.90;;;;;;5014166;28;20026;-70
2021/06/24 00:04:18;;;;;;;2.50;0.60;;;14.90;99.90;;;;;;5014148;28;20038;-69
2021/06/24 00:06:44;;;;;;;4.00;0.40;;;14.90;99.90;;;;;;5014373;28;20033;-69
2021/06/24 00:09:10;;;;;;;0.55;0.45;;;14.80;99.90;;;;;;5014112;28;20374;-70
2021/06/24 00:11:36;;;;;;;1.33;0.50;;;14.80;99.90;;;;;;5014177;28;20052;-70
2021/06/24 00:14:03;;;;;;;1.90;0.60;;;14.80;99.90;;;;;;4995786;28;20477;-71
2021/06/24 00:16:29;;;;;;;0.47;0.47;;;14.80;99.90;;;;;;5014117;28;20053;-71
2021/06/24 00:18:55;;;;;;;0.38;0.38;;;14.70;99.90;;;;;;5013996;28;20049;-70
2021/06/24 00:21:22;;;;;;;0.40;0.40;;;14.70;99.90;;;;;;5014097;28;20053;-71
2021/06/24 00:23:47;;;;;;;0.73;0.57;;;14.70;99.90;;;;;;5014138;28;20029;-70
2021/06/24 00:26:13;;;;;;;1.17;0.55;;;14.70;99.90;;;;;;5014127;28;20026;-70
2021/06/24 00:28:39;;;;;;;0.77;0.70;;;14.60;99.90;;;;;;5013618;28;20025;-71
2021/06/24 00:31:05;;;;;;;1.42;0.65;;;14.60;99.90;;;;;;5013831;28;20033;-71
2021/06/24 00:33:31;;;;;;;1.45;0.40;;;14.60;99.90;;;;;;5013480;28;20030;-70
2021/06/24 00:35:57;;;;;;;0.40;0.40;;;14.50;99.90;;;;;;5013827;28;20045;-70
2021/06/24 00:38:23;;;;;;;2.40;0.50;;;14.50;99.90;;;;;;5013527;28;20025;-69
2021/06/24 00:40:49;;;;;;;3.17;0.55;;;14.40;99.90;;;;;;5013677;28;20026;-69
2021/06/24 00:43:17;;;;;;;2.55;0.70;;;14.40;99.90;;;;;;5013470;28;20018;-68
2021/06/24 00:45:43;;;;;;;0.80;0.50;;;14.40;99.90;;;;;;5013527;28;20026;-68
2021/06/24 00:48:10;;;;;;;0.40;0.40;;;14.40;99.90;;;;;;5013669;28;20087;-68
2021/06/24 00:50:38;;;;;;;0.52;0.50;;;14.40;99.90;;;;;;5013311;28;20029;-68
2021/06/24 00:53:04;;;;;;;3.50;0.60;;;14.40;99.90;;;;;;5013137;28;20107;-68
2021/06/24 00:55:40;;;;;;;1.85;0.75;;;14.40;99.90;;;;;;5013327;28;20057;-68
2021/06/24 00:58:17;;;;;;;0.85;0.40;;;14.30;99.90;;;;;;5013467;28;20026;-68
2021/06/24 01:00:45;;;;;;;2.28;0.40;;;14.30;99.90;;;;;;5013299;28;20606;-68
2021/06/24 01:03:12;;;;;;;1.00;0.55;;;14.30;99.90;;;;;;5013308;28;20037;-68
2021/06/24 01:05:39;;;;;;;1.17;0.45;;;14.30;99.90;;;;;;5013090;28;20413;-68
2021/06/24 01:08:07;;;;;;;0.40;0.40;;;14.20;99.90;;;;;;5013052;28;20026;-68
2021/06/24 01:10:33;;;;;;;1.77;0.70;;;14.20;99.90;;;;;;5012911;28;20030;-68
2021/06/24 01:13:00;;;;;;;0.95;0.50;;;14.20;99.90;;;;;;5013179;28;20113;-68
2021/06/24 01:15:26;;;;;;;1.70;0.50;;;14.20;99.90;;;;;;5012818;28;20026;-68
2021/06/24 01:51:54;;;;;;;1.27;0.60;;;13.80;99.90;;;;;;6087557;23;20018;-68
2021/06/24 01:54:21;;;;;;;1.52;0.60;;;13.80;99.90;;;;;;4951168;28;20083;-68
2021/06/24 01:56:48;;;;;;;1.23;0.70;;;13.80;99.90;;;;;;4954253;28;20046;-68
2021/06/24 01:59:14;;;;;;;0.50;0.50;;;13.70;99.90;;;;;;4953892;28;20522;-68
2021/06/24 02:01:40;;;;;;;0.77;0.50;;;13.80;99.90;;;;;;4954088;28;20055;-70
2021/06/24 02:04:06;;;;;;;3.33;0.50;;;13.80;99.90;;;;;;4954007;28;20078;-69
2021/06/24 02:06:32;;;;;;;0.50;0.50;;;13.80;99.90;;;;;;4954041;28;20019;-71
2021/06/24 02:08:58;;;;;;;1.98;0.88;;;13.80;99.90;;;;;;4953866;28;20466;-71
2021/06/24 02:11:24;;;;;;;2.35;0.45;;;13.80;99.90;;;;;;4953799;28;20028;-72
2021/06/24 02:13:50;;;;;;;0.50;0.50;;;13.80;99.90;;;;;;4953869;28;20027;-72
2021/06/24 02:16:15;;;;;;;2.30;0.60;;;13.80;99.90;;;;;;4953953;28;20097;-70
2021/06/24 02:18:41;;;;;;;0.98;0.50;;;13.80;99.90;;;;;;4953857;28;20027;-71
2021/06/24 02:21:07;;;;;;;0.60;0.43;;;13.80;99.90;;;;;;4953900;28;20028;-71
2021/06/24 02:23:33;;;;;;;0.43;0.43;;;13.80;99.90;;;;;;4953766;28;20058;-71
2021/06/24 02:25:59;;;;;;;0.80;0.57;;;13.80;99.90;;;;;;4954086;28;20059;-71
2021/06/24 02:28:24;;;;;;;3.00;0.70;;;13.80;99.90;;;;;;4953547;28;20111;-71
2021/06/24 02:30:50;;;;;;;3.90;0.63;;;13.80;99.90;;;;;;4953756;28;20034;-71
2021/06/24 02:33:18;;;;;;;1.67;0.70;;;13.80;99.90;;;;;;4953775;28;20027;-71
2021/06/24 02:35:49;;;;;;;0.95;0.65;;;13.90;99.90;;;;;;4954108;28;20118;-71
2021/06/24 02:38:15;;;;;;;3.63;0.70;;;13.90;99.90;;;;;;4957349;28;20034;-71
2021/06/24 02:40:41;;;;;;;4.18;0.90;;;13.90;99.90;;;;;;4957525;28;20031;-71
2021/06/24 02:43:07;;;;;;;3.22;0.60;;;14.00;99.90;;;;;;4957503;28;20050;-71
2021/06/24 02:45:33;;;;;;;2.42;0.70;;;14.00;99.90;;;;;;4957320;28;20115;-71
2021/06/24 02:47:59;;;;;;;2.42;0.63;;;14.00;99.90;;;;;;4957310;28;20386;-71
2021/06/24 02:50:25;;;;;;;1.33;0.75;;;14.00;99.90;;;;;;4957517;28;20026;-71
2021/06/24 02:52:51;;;;;;;0.60;0.60;;;14.10;99.90;;;;;;4977019;28;20378;-71
2021/06/24 02:55:17;;;;;;;8.68;0.70;;;14.30;99.90;;;;;;4995814;28;20077;-71
2021/06/24 02:57:43;;;;;;;1.25;0.70;;;14.60;99.90;;;;;;4995877;28;20065;-71
2021/06/24 03:00:10;;;;;;;1.15;0.60;;;14.80;99.90;;;;;;4996025;28;20382;-71
2021/06/24 03:02:36;;;;;;;0.75;0.50;;;14.90;99.90;;;;;;4995887;28;20112;-71
2021/06/24 03:05:04;;;;;;;2.25;0.70;;;15.00;99.90;;;;;;4995904;28;20447;-70
2021/06/24 03:07:30;;;;;;;2.75;0.70;;;15.00;99.90;;;;;;4995797;28;20030;-69
2021/06/24 03:09:55;;;;;;;1.38;0.50;;;15.00;99.90;;;;;;4996175;28;20065;-69
2021/06/24 03:12:21;;;;;;;1.17;0.50;;;15.10;99.90;;;;;;4995704;28;20030;-69
2021/06/24 03:14:47;;;;;;;1.55;0.60;;;15.10;99.90;;;;;;4995686;28;20058;-69
2021/06/24 03:17:13;;;;;;;2.47;0.55;;;15.10;99.90;;;;;;4995608;28;20031;-70
2021/06/24 03:19:39;;;;;;;3.88;1.00;;;15.20;99.90;;;;;;4995640;28;20018;-69
2021/06/24 03:22:05;;;;;;;2.85;0.50;;;15.40;99.90;;;;;;4995457;28;20493;-70
2021/06/24 03:24:31;;;;;;;4.63;0.55;;;15.80;99.90;;;;;;4995267;28;20022;-70
2021/06/24 03:26:56;;;;;;;1.38;0.50;;;16.20;99.90;;;;;;4995428;28;20054;-68
2021/06/24 03:29:22;;;;;;;3.13;0.88;;;16.60;99.90;;;;;;4995159;28;20121;-68
2021/06/24 03:31:48;;;;;;;0.50;0.40;;;17.00;99.90;;;;;;4995364;28;20389;-70
2021/06/24 03:34:14;;;;;;;1.13;0.38;;;17.40;99.90;;;;;;4995116;28;20088;-68
2021/06/24 03:36:40;;;;;;;0.82;0.63;;;17.70;99.90;;;;;;4995097;28;20123;-68
2021/06/24 03:39:05;;;;;;;0.40;0.38;;;18.10;99.90;;;;;;4995181;28;20022;-69
2021/06/24 03:41:31;;;;;;;0.52;0.50;;;18.40;99.90;;;;;;4994973;28;20718;-70
2021/06/24 03:43:57;;;;;;;1.58;0.57;;;18.70;99.90;;;;;;4995323;28;20027;-68
2021/06/24 03:46:24;;;;;;;0.85;0.50;;;19.10;99.90;;;;;;4994970;28;20469;-69
2021/06/24 03:48:51;;;;;;;2.08;0.50;;;19.40;99.50;;;;;;4994086;28;20113;-69
2021/06/24 03:51:17;;;;;;;1.42;0.60;;;19.70;98.50;;;;;;4994874;28;20076;-68
2021/06/24 03:53:43;;;;;;;2.15;0.40;;;20.00;97.20;;;;;;4994550;28;20513;-68
2021/06/24 03:56:09;;;;;;;0.40;0.40;;;20.30;95.40;;;;;;4994858;28;20077;-68
2021/06/24 03:58:35;;;;;;;2.03;0.43;;;20.60;94.00;;;;;;4994736;28;20347;-70
2021/06/24 04:01:01;;;;;;;2.42;0.50;;;20.80;92.60;;;;;;4994920;28;20026;-69
2021/06/24 04:03:27;;;;;;;3.08;0.60;;;21.10;92.00;;;;;;4994487;28;20026;-68
2021/06/24 04:05:53;;;;;;;2.25;0.47;;;21.40;90.80;;;;;;4994750;28;20037;-68
2021/06/24 04:08:19;;;;;;;2.33;0.40;;;21.70;90.10;;;;;;4994490;28;20436;-68
2021/06/24 04:10:44;;;;;;;1.55;0.60;;;21.90;87.60;;;;;;4994635;28;20023;-68
2021/06/24 04:13:10;;;;;;;3.72;0.50;;;22.10;85.30;;;;;;4994367;28;20083;-69
2021/06/24 04:15:36;;;;;;;1.45;0.38;;;22.30;82.90;;;;;;4994371;28;20046;-69
2021/06/24 04:18:04;;;;;;;2.97;0.40;;;22.50;81.70;;;;;;4994664;28;20035;-70
2021/06/24 04:20:31;;;;;;;0.30;0.20;;;22.80;80.20;;;;;;4994404;28;20725;-70
2021/06/24 04:22:57;;;;;;;0.57;0.30;;;23.00;78.30;;;;;;4994613;28;20037;-69
2021/06/24 04:25:23;;;;;;;2.13;0.43;;;23.20;77.20;;;;;;4994257;28;20030;-69
2021/06/24 04:27:49;;;;;;;2.38;0.40;;;23.40;75.80;;;;;;4994418;28;20033;-69
2021/06/24 04:30:16;;;;;;;1.83;0.47;;;23.50;73.10;;;;;;4994550;28;20093;-70
2021/06/24 04:32:43;;;;;;;6.60;1.08;;;23.80;72.60;;;;;;4994212;28;20035;-76
2021/06/24 04:35:09;;;;;;;1.27;0.30;;;24.00;72.20;;;;;;4994238;28;20394;-73
2021/06/24 04:37:36;;;;;;;5.00;0.20;;;24.10;70.90;;;;;;4993997;28;20034;-71
2021/06/24 04:40:02;;;;;;;2.58;0.30;;;24.30;70.80;;;;;;4994165;28;20050;-71
2021/06/24 04:42:29;;;;;;;0.30;0.25;;;24.40;70.40;;;;;;4993738;28;20081;-71
2021/06/24 04:44:55;;;;;;;3.03;0.47;;;24.60;68.60;;;;;;4994108;28;20037;-70
2021/06/24 04:47:20;;;;;;;0.65;0.20;;;24.80;67.70;;;;;;4994061;28;20370;-75
2021/06/24 04:49:46;;;;;;;0.60;0.30;;;24.90;66.80;;;;;;4973029;28;20027;-78
2021/06/24 04:52:12;;;;;;;1.23;0.40;;;25.00;66.80;;;;;;4973751;28;20054;-78
2021/06/24 04:54:38;;;;;;;0.90;0.30;;;25.10;66.50;;;;;;4980732;28;20035;-77
2021/06/24 04:57:04;;;;;;;6.25;0.70;;;25.00;65.40;;;;;;4979875;28;20039;-80
2021/06/24 04:59:29;;;;;;;4.13;0.32;;;25.10;66.30;;;;;;4985254;28;20048;-79
2021/06/24 05:01:55;;;;;;;4.55;0.32;;;25.20;65.20;;;;;;4974558;28;20084;-78
2021/06/24 05:04:21;;;;;;;5.10;0.32;;;25.50;64.80;;;;;;4976437;28;20023;-79
2021/06/24 05:06:53;;;;;;;0.25;0.25;;;25.70;63.50;;;;;;4984957;28;20031;-79
2021/06/24 05:09:27;;;;;;;1.33;0.35;;;25.70;63.00;;;;;;4981419;28;20104;-78
2021/06/24 05:11:53;;;;;;;3.28;0.40;;;25.90;63.70;;;;;;4984833;28;20407;-77
2021/06/24 05:14:19;;;;;;;3.20;0.30;;;26.00;63.20;;;;;;4982037;28;20497;-77
2021/06/24 05:16:45;;;;;;;2.83;0.20;;;26.10;62.90;;;;;;4984781;28;20066;-78
2021/06/24 05:19:11;;;;;;;1.48;0.30;;;26.10;62.70;;;;;;4993477;28;20018;-76
2021/06/24 05:21:39;;;;;;;8.70;1.08;;;26.30;62.20;;;;;;4993337;28;20073;-78
2021/06/24 05:24:06;;;;;;;4.03;0.35;;;26.30;60.70;;;;;;4993136;28;20078;-78
2021/06/24 05:26:31;;;;;;;2.10;0.30;;;26.30;61.60;;;;;;4992957;28;20026;-77
2021/06/24 05:28:57;;;;;;;3.75;0.30;;;26.50;61.20;;;;;;4993398;28;20104;-77
2021/06/24 05:31:23;;;;;;;0.77;0.40;;;26.70;60.50;;;;;;4983294;28;20022;-77
2021/06/24 05:33:49;;;;;;;1.73;0.30;;;26.90;60.10;;;;;;4973717;28;20038;-77
2021/06/24 05:36:15;;;;;;;3.35;0.40;;;26.90;60.00;;;;;;4973599;28;20493;-76
2021/06/24 05:38:41;;;;;;;0.40;0.20;;;26.90;59.70;;;;;;4973459;28;20033;-76
2021/06/24 05:41:06;;;;;;;0.40;0.30;;;26.70;59.70;;;;;;4973829;28;20110;-77
2021/06/24 05:43:32;;;;;;;0.52;0.20;;;26.70;59.90;;;;;;4973585;28;20437;-77
2021/06/24 05:45:58;;;;;;;0.77;0.30;;;27.00;59.80;;;;;;4973677;28;20035;-77
2021/06/24 05:48:23;;;;;;;1.60;0.32;;;27.20;59.00;;;;;;4973364;28;20019;-74
2021/06/24 05:50:49;;;;;;;0.63;0.30;;;27.50;58.20;;;;;;4973817;28;20026;-74
2021/06/24 05:53:15;;;;;;;1.75;0.38;;;27.60;58.60;;;;;;4973202;28;20410;-73
2021/06/24 05:55:50;;;;;;;1.35;0.25;;;27.80;58.20;;;;;;4973375;28;20076;-74
2021/06/24 05:58:25;;;;;;;1.67;0.43;;;28.00;57.90;;;;;;4973419;28;20491;-74
2021/06/24 06:00:54;;;;;;;2.55;0.50;;;28.20;56.80;;;;;;4973366;28;20030;-73
2021/06/24 06:03:20;;;;;;;1.65;0.50;;;28.30;56.90;;;;;;4973172;28;20037;-73
2021/06/24 06:05:47;;;;;;;3.25;0.40;;;28.20;56.70;;;;;;4955948;28;20116;-73
2021/06/24 06:08:13;;;;;;;0.73;0.28;;;28.20;56.90;;;;;;4973467;28;20055;-72
2021/06/24 06:10:39;;;;;;;0.98;0.40;;;28.20;57.30;;;;;;4982330;28;20426;-74
2021/06/24 06:13:06;;;;;;;0.10;0.10;;;28.30;57.00;;;;;;4981159;28;20022;-73
2021/06/24 06:15:34;;;;;;;2.60;0.40;;;28.50;56.40;;;;;;4975231;28;20038;-73
2021/06/24 06:18:00;;;;;;;0.65;0.28;;;28.40;55.40;;;;;;4983486;28;20037;-73
2021/06/24 06:20:25;;;;;;;1.65;0.65;;;28.40;55.60;;;;;;4981501;28;20018;-73
2021/06/24 06:22:51;;;;;;;1.55;0.32;;;28.60;56.20;;;;;;4982053;28;20026;-72
2021/06/24 06:25:17;;;;;;;0.45;0.20;;;28.50;55.60;;;;;;4980837;28;20034;-75
2021/06/24 06:27:43;;;;;;;0.28;0.20;;;28.60;55.20;;;;;;4973239;28;20019;-73
2021/06/24 06:30:09;;;;;;;2.05;0.32;;;28.80;54.30;;;;;;4972925;28;20446;-72
2021/06/24 06:32:35;;;;;;;2.78;0.30;;;28.90;54.20;;;;;;4972845;28;20023;-72
2021/06/24 06:35:01;;;;;;;4.90;0.30;;;28.90;54.40;;;;;;4973063;28;20027;-70
2021/06/24 06:37:27;;;;;;;0.70;0.40;;;29.00;53.50;;;;;;4972771;28;20394;-70
2021/06/24 06:39:52;;;;;;;0.65;0.55;;;29.00;52.00;;;;;;4973168;28;20035;-69
2021/06/24 06:42:18;;;;;;;1.63;0.45;;;29.00;52.40;;;;;;4973087;28;20027;-68
2021/06/24 06:44:44;;;;;;;0.40;0.40;;;29.00;52.00;;;;;;4972736;28;20414;-70
2021/06/24 06:47:09;;;;;;;2.05;0.55;;;29.10;52.10;;;;;;4973066;28;20030;-73
2021/06/24 06:49:35;;;;;;;2.38;0.40;;;29.10;50.40;;;;;;4972541;28;20058;-75
2021/06/24 06:52:01;;;;;;;0.68;0.40;;;28.80;50.50;;;;;;4972524;28;20721;-73
2021/06/24 06:54:27;;;;;;;1.92;0.57;;;28.50;51.50;;;;;;4972808;28;20411;-73
2021/06/24 06:56:52;;;;;;;1.23;0.52;;;28.20;50.90;;;;;;4972680;28;20038;-72
2021/06/24 06:59:18;;;;;;;0.85;0.47;;;28.00;50.80;;;;;;4972731;28;20027;-73
2021/06/24 07:01:44;;;;;;;3.53;0.80;;;27.70;50.30;;;;;;4972588;28;20035;-74
2021/06/24 07:04:09;;;;;;;0.55;0.45;;;27.50;50.60;;;;;;4972697;28;20086;-75
2021/06/24 07:06:35;;;;;;;1.92;0.52;;;27.20;50.00;;;;;;4972581;28;20027;-76
2021/06/24 07:09:01;;;;;;;5.18;0.60;;;26.80;50.70;;;;;;4972669;28;20019;-75
2021/06/24 07:11:27;;;;;;;1.23;0.40;;;26.50;51.20;;;;;;4973582;28;20023;-75
2021/06/24 07:13:53;;;;;;;1.02;0.50;;;26.40;51.50;;;;;;4987670;28;20027;-76
2021/06/24 07:16:19;;;;;;;4.13;0.80;;;26.20;51.10;;;;;;4972767;28;20557;-74
2021/06/24 07:18:45;;;;;;;4.40;0.77;;;26.00;51.40;;;;;;4972400;28;20023;-77
2021/06/24 07:21:12;;;;;;;3.20;0.80;;;25.90;52.00;;;;;;4972774;28;20086;-79
2021/06/24 07:23:38;;;;;;;2.67;0.95;;;25.70;52.50;;;;;;4975163;28;20015;-78
2021/06/24 07:26:05;;;;;;;0.90;0.55;;;25.50;52.50;;;;;;4975171;28;20027;-78
2021/06/24 07:28:30;;;;;;;2.70;0.55;;;25.30;51.50;;;;;;4975640;28;20114;-78
2021/06/24 07:30:56;;;;;;;1.85;0.80;;;25.10;51.90;;;;;;4975938;28;20101;-78
2021/06/24 07:33:22;;;;;;;3.33;0.55;;;24.90;51.30;;;;;;4975634;28;20096;-78
2021/06/24 07:35:48;;;;;;;2.63;0.60;;;24.80;52.10;;;;;;4975657;28;20047;-78
2021/06/24 07:38:14;;;;;;;0.73;0.50;;;24.70;52.30;;;;;;4975777;28;20027;-78
2021/06/24 07:40:40;;;;;;;0.75;0.50;;;24.60;52.30;;;;;;4975512;28;20023;-78
2021/06/24 07:43:06;;;;;;;1.75;0.70;;;24.40;52.00;;;;;;4975681;28;20498;-78
2021/06/24 07:45:32;;;;;;;4.85;0.70;;;24.20;52.40;;;;;;4975518;28;20023;-78
2021/06/24 07:47:58;;;;;;;0.60;0.50;;;24.20;53.60;;;;;;4975542;28;20031;-78
2021/06/24 07:50:24;;;;;;;0.50;0.50;;;24.10;53.50;;;;;;4975361;28;20022;-81
2021/06/24 07:52:50;;;;;;;0.55;0.55;;;24.00;53.10;;;;;;4975214;28;20137;-79
2021/06/24 07:55:16;;;;;;;5.45;0.77;;;24.00;52.90;;;;;;4975616;28;20131;-78
2021/06/24 07:57:43;;;;;;;1.92;0.80;;;23.90;53.30;;;;;;4975482;28;20031;-78
2021/06/24 08:00:10;;;;;;;3.72;0.73;;;23.80;53.70;;;;;;4975672;28;20086;-78
2021/06/24 08:02:36;;;;;;;1.75;0.63;;;23.80;54.20;;;;;;4975202;28;20508;-78
2021/06/24 08:05:03;;;;;;;1.10;0.52;;;23.80;54.70;;;;;;4975208;28;20101;-78
2021/06/24 08:07:29;;;;;;;3.28;0.68;;;23.80;55.00;;;;;;4975171;28;20022;-79
2021/06/24 08:10:01;;;;;;;1.20;0.80;;;23.80;55.50;;;;;;4975020;28;20023;-79
2021/06/24 08:12:27;;;;;;;9.10;0.80;;;23.80;55.80;;;;;;4974928;28;20035;-79
2021/06/24 08:14:52;;;;;;;2.22;0.80;;;23.80;56.20;;;;;;4975008;28;20030;-78
2021/06/24 08:17:18;;;;;;;1.95;0.73;;;23.80;55.70;;;;;;4975091;28;20031;-78
2021/06/24 08:19:44;;;;;;;2.88;0.65;;;23.80;55.60;;;;;;4974772;28;20490;-78
2021/06/24 08:22:09;;;;;;;1.77;0.75;;;23.80;54.80;;;;;;4974962;28;20047;-78
2021/06/24 08:24:35;;;;;;;5.95;0.80;;;23.80;54.70;;;;;;4974951;28;20029;-78
2021/06/24 08:27:01;;;;;;;3.88;0.70;;;23.70;55.10;;;;;;4974728;28;20018;-78
2021/06/24 08:29:27;;;;;;;1.13;0.60;;;23.70;55.20;;;;;;4974683;28;20031;-78
2021/06/24 08:31:52;;;;;;;2.13;0.70;;;23.80;56.10;;;;;;4974770;28;20386;-78
2021/06/24 08:34:18;;;;;;;6.13;1.08;;;23.80;55.50;;;;;;4974108;28;20041;-78
2021/06/24 08:36:44;;;;;;;3.13;0.82;;;23.80;55.00;;;;;;4974364;28;20174;-78
2021/06/24 08:39:10;;;;;;;0.75;0.70;;;23.90;55.90;;;;;;4974833;28;20027;-78
2021/06/24 08:41:37;;;;;;;1.10;0.70;;;24.00;55.50;;;;;;4974461;28;20027;-78
2021/06/24 08:44:04;;;;;;;1.13;0.60;;;24.00;55.70;;;;;;4974282;28;20026;-78
2021/06/24 08:46:31;;;;;;;3.08;0.80;;;24.00;55.90;;;;;;4974258;28;20447;-78
2021/06/24 08:48:58;;;;;;;1.70;0.85;;;24.00;55.40;;;;;;4974400;28;20050;-78
2021/06/24 08:51:23;;;;;;;2.50;0.82;;;24.00;56.20;;;;;;4974410;28;20105;-78
2021/06/24 08:53:50;;;;;;;3.83;0.68;;;24.00;56.10;;;;;;4974108;28;20126;-78
2021/06/24 08:56:16;;;;;;;4.07;0.65;;;24.00;56.00;;;;;;4974283;28;20030;-78
2021/06/24 08:58:45;;;;;;;2.92;0.80;;;24.00;56.90;;;;;;4974208;28;20049;-78
2021/06/24 09:01:11;;;;;;;4.13;0.80;;;24.00;56.80;;;;;;4974247;28;20027;-78
2021/06/24 09:03:36;;;;;;;1.70;0.68;;;24.00;56.40;;;;;;4974030;28;20027;-78
2021/06/24 09:06:07;;;;;;;2.90;0.50;;;24.00;56.20;;;;;;4974193;28;20037;-78
2021/06/24 09:08:43;;;;;;;1.23;0.70;;;24.00;56.30;;;;;;4973959;28;20110;-78
2021/06/24 09:11:25;;;;;;;1.42;0.75;;;24.00;56.90;;;;;;4974173;28;20131;-78
2021/06/24 09:14:17;;;;;;;1.30;0.70;;;24.10;57.00;;;;;;4973661;28;20053;-78
2021/06/24 09:16:45;;;;;;;1.25;0.60;;;24.10;56.20;;;;;;4953818;28;20047;-79
2021/06/24 09:19:18;;;;;;;2.58;0.70;;;24.20;56.60;;;;;;4973692;28;20478;-78
2021/06/24 09:22:08;;;;;;;1.52;0.80;;;24.20;56.30;;;;;;4973668;28;20493;-78
2021/06/24 09:24:38;;;;;;;8.30;0.88;;;24.20;56.30;;;;;;4973821;28;20027;-78
2021/06/24 09:27:17;;;;;;;4.78;0.80;;;24.20;56.30;;;;;;4973767;28;20106;-78
2021/06/24 09:29:48;;;;;;;5.97;1.00;;;24.30;56.60;;;;;;4973405;28;20497;-78
2021/06/24 09:32:30;;;;;;;1.92;0.70;;;24.40;56.40;;;;;;4973580;28;20035;-78
2021/06/24 09:34:56;;;;;;;2.05;0.68;;;24.40;56.80;;;;;;4973925;28;20027;-78
2021/06/24 09:37:22;;;;;;;2.55;0.70;;;24.50;55.90;;;;;;4973440;28;20401;-78
2021/06/24 09:39:48;;;;;;;2.33;0.50;;;24.50;55.80;;;;;;4973458;28;20031;-78
2021/06/24 09:42:15;;;;;;;1.65;0.68;;;24.50;55.90;;;;;;4973525;28;20408;-79
2021/06/24 09:44:43;;;;;;;2.38;0.80;;;24.60;55.60;;;;;;4973433;28;20023;-79
2021/06/24 09:47:20;;;;;;;1.05;0.80;;;24.60;55.60;;;;;;4972944;28;20023;-79
2021/06/24 09:50:06;;;;;;;1.60;0.80;;;24.70;55.00;;;;;;4973114;28;20062;-79
2021/06/24 09:52:33;;;;;;;3.40;1.15;;;24.70;54.90;;;;;;4972964;28;20046;-79
2021/06/24 09:55:14;;;;;;;1.45;0.80;;;24.70;55.40;;;;;;4973507;28;20114;-79
2021/06/24 09:57:40;;;;;;;1.00;0.65;;;24.60;55.10;;;;;;4973098;28;20552;-78
2021/06/24 10:00:20;;;;;;;2.90;1.08;;;24.50;55.10;;;;;;4973140;28;20027;-79
2021/06/24 10:03:11;;;;;;;5.55;1.05;;;24.50;56.90;;;;;;4973036;28;20035;-79
2021/06/24 10:05:40;;;;;;;1.33;0.60;;;24.60;56.80;;;;;;4973075;28;20027;-78
2021/06/24 10:08:06;;;;;;;1.25;0.68;;;24.60;55.90;;;;;;4973286;28;20077;-78
2021/06/24 10:10:32;;;;;;;9.63;1.02;;;24.60;56.20;;;;;;4973101;28;20042;-78
2021/06/24 10:12:58;;;;;;;3.53;0.60;;;24.70;55.50;;;;;;4955831;28;20034;-79
2021/06/24 10:15:24;;;;;;;1.27;0.65;;;24.80;54.70;;;;;;4973008;28;20027;-79
2021/06/24 10:17:54;;;;;;;0.88;0.65;;;24.80;55.70;;;;;;4973070;28;20449;-78
2021/06/24 10:20:20;;;;;;;;;;;24.80;54.80;;;;;;4973509;28;20025;-78
2021/06/24 10:23:05;;;;;;;1.25;0.60;;;24.80;55.60;;;;;;4972838;28;19906;-78
2021/06/24 10:25:31;;;;;;;1.85;0.60;;;24.80;55.10;;;;;;4973058;28;20422;-78
2021/06/24 10:27:59;;;;;;;1.17;0.73;;;24.80;54.40;;;;;;4973025;28;20406;-78
2021/06/24 10:30:26;;;;;;;118.60;6.07;;;24.80;54.60;;;;;;4973138;28;20474;-78
2021/06/24 10:32:57;;;;;;;16.95;2.10;;;24.80;52.30;;;;;;4972836;28;20023;-78
2021/06/24 10:35:31;;;;;;;14.73;1.30;;;24.80;52.60;;;;;;4972855;28;20139;-78
2021/06/24 10:37:58;;;;;;;2.55;0.70;;;24.80;53.60;;;;;;4972933;28;20026;-78
2021/06/24 10:40:33;;;;;;;6.68;0.82;;;24.90;53.20;;;;;;4973052;28;20033;-77
2021/06/24 10:43:03;;;;;;;1.52;0.80;;;24.80;53.30;;;;;;4972991;28;20033;-78
2021/06/24 10:45:30;;;;;;;10.38;0.90;;;24.90;52.50;;;;;;4972743;28;20030;-78
2021/06/24 10:47:57;;;;;;;2.42;0.75;;;24.80;52.70;;;;;;4972491;28;20059;-78
2021/06/24 10:50:26;;;;;;;1.00;0.80;;;24.90;52.70;;;;;;4972613;28;20550;-77
2021/06/24 10:53:12;;;;;;;1.33;0.70;;;24.80;52.90;;;;;;4972478;28;20054;-78
2021/06/24 10:55:40;;;;;;;2.83;1.00;;;24.80;52.60;;;;;;4962024;28;20046;-78
2021/06/24 10:58:18;;;;;;;1.20;0.70;;;24.80;52.70;;;;;;4975346;28;20022;-78
2021/06/24 11:00:50;;;;;;;1.75;0.65;;;24.80;52.90;;;;;;4976236;28;20073;-78
2021/06/24 11:03:31;;;;;;;0.80;0.68;;;24.80;53.50;;;;;;4959103;28;20027;-78
2021/06/24 11:06:23;;;;;;;0.75;0.55;;;24.80;53.30;;;;;;4976207;28;20019;-78
2021/06/24 11:09:09;;;;;;;2.78;0.73;;;24.80;53.20;;;;;;4969301;28;20494;-78
2021/06/24 11:11:43;;;;;;;1.00;0.70;;;24.80;53.50;;;;;;4976237;28;20058;-78
2021/06/24 11:14:09;;;;;;;2.90;0.60;;;24.80;52.70;;;;;;4959658;28;20118;-78
2021/06/24 11:16:36;;;;;;;5.60;0.85;;;24.80;53.50;;;;;;4976018;28;20035;-78
2021/06/24 11:19:07;;;;;;;1.88;0.75;;;24.80;54.30;;;;;;4976261;28;20046;-78
2021/06/24 11:21:33;;;;;;;1.85;0.65;;;25.00;54.00;;;;;;4976026;28;20039;-78
2021/06/24 11:24:01;;;;;;;1.38;0.73;;;25.00;54.20;;;;;;4975899;28;20023;-78
2021/06/24 11:26:28;;;;;;;2.08;0.80;;;25.00;54.50;;;;;;4976017;28;20027;-78
2021/06/24 11:29:07;;;;;;;1.17;0.50;;;25.00;53.30;;;;;;4975848;28;20022;-78
2021/06/24 11:31:33;;;;;;;2.88;0.60;;;25.00;53.00;;;;;;4976155;28;20069;-78
2021/06/24 11:34:18;;;;;;;1.00;0.70;;;24.90;53.70;;;;;;4975855;28;20510;-78
2021/06/24 11:36:58;;;;;;;1.52;0.80;;;25.00;53.80;;;;;;4958274;28;20043;-78
2021/06/24 11:39:28;;;;;;;1.35;0.88;;;24.90;53.40;;;;;;4976098;28;20106;-77
2021/06/24 11:41:58;;;;;;;5.18;0.73;;;24.90;53.80;;;;;;4975604;28;20402;-78
2021/06/24 11:44:25;;;;;;;1.17;0.70;;;24.90;53.60;;;;;;4975916;28;20106;-78
2021/06/24 11:47:07;;;;;;;3.63;0.63;;;24.90;53.60;;;;;;4975463;28;20059;-78
2021/06/24 12:03:48;;;;;;;3.83;0.60;;;25.00;54.50;;;;;;4975479;28;20062;-77
2021/06/24 12:06:14;;;;;;;0.82;0.70;;;25.10;53.10;;;;;;4975392;28;20027;-78
2021/06/24 12:08:40;;;;;;;2.30;0.77;;;25.10;52.60;;;;;;4974129;28;20147;-77
2021/06/24 12:11:13;;;;;;;3.63;0.60;;;25.10;52.80;;;;;;4975085;28;20038;-77
2021/06/24 12:13:41;;;;;;;1.35;0.63;;;25.00;52.10;;;;;;4975279;28;20042;-77
2021/06/24 12:16:11;;;;;;;10.50;1.30;;;25.00;52.30;;;;;;4974920;28;20435;-77
2021/06/24 12:18:44;;;;;;;2.47;0.70;;;25.10;53.00;;;;;;4957801;28;20109;-77
2021/06/24 12:21:12;;;;;;;2.03;0.65;;;25.10;53.10;;;;;;4974800;28;20158;-77
2021/06/24 12:23:49;;;;;;;3.60;0.75;;;25.10;52.80;;;;;;4975185;28;20062;-77
2021/06/24 12:26:19;;;;;;;1.50;0.60;;;25.00;52.90;;;;;;4975101;28;20117;-78
2021/06/24 12:28:44;;;;;;;;;;;24.90;53.30;;;;;;4975257;28;20023;-78
2021/06/24 12:31:23;;;;;;;1.38;0.68;;;24.90;52.60;;;;;;4974780;28;19914;-77
2021/06/24 12:33:51;;;;;;;0.90;0.60;;;24.90;53.60;;;;;;4975035;28;20102;-77
2021/06/24 12:36:31;;;;;;;2.25;0.60;;;24.90;52.70;;;;;;4974592;28;20054;-77
2021/06/24 12:38:57;;;;;;;4.03;0.70;;;24.80;53.20;;;;;;4974897;28;20038;-77
2021/06/24 12:41:26;;;;;;;4.90;0.80;;;24.80;52.30;;;;;;4974784;28;20030;-78
2021/06/24 12:44:02;;;;;;;2.03;0.60;;;24.80;52.70;;;;;;4974598;28;20027;-77
2021/06/24 12:46:31;;;;;;;1.23;0.60;;;24.80;52.60;;;;;;4974418;28;20042;-78
2021/06/24 12:49:01;;;;;;;2.33;0.85;;;24.80;52.30;;;;;;4974530;28;20081;-77
2021/06/24 12:51:27;;;;;;;5.25;0.90;;;24.80;51.80;;;;;;4974239;28;20027;-77
2021/06/24 12:53:53;;;;;;;1.23;0.75;;;24.80;51.20;;;;;;4953667;29;20138;-77
2021/06/24 12:56:23;;;;;;;2.80;0.63;;;24.70;51.80;;;;;;4955320;28;20046;-77
2021/06/24 12:58:50;;;;;;;1.92;0.80;;;24.70;52.40;;;;;;4954966;28;20478;-77
2021/06/24 13:01:20;;;;;;;3.67;0.80;;;24.70;53.10;;;;;;4954940;28;20058;-77
2021/06/24 13:03:50;;;;;;;1.30;0.70;;;24.70;53.40;;;;;;4954898;28;20487;-78
2021/06/24 13:06:17;;;;;;;2.15;0.73;;;24.60;53.10;;;;;;4954834;28;20525;-77
2021/06/24 13:08:56;;;;;;;2.83;0.77;;;24.50;53.10;;;;;;4954818;28;20494;-77
2021/06/24 13:11:37;;;;;;;2.65;0.82;;;24.60;53.70;;;;;;4954924;28;20027;-78
2021/06/24 13:14:23;;;;;;;2.03;0.75;;;24.60;53.60;;;;;;4954867;28;20023;-77
2021/06/24 13:16:50;;;;;;;4.82;0.80;;;24.60;53.30;;;;;;4954845;28;20459;-77
2021/06/24 13:19:27;;;;;;;2.17;0.88;;;24.70;53.50;;;;;;4954716;28;20419;-77
2021/06/24 13:22:06;;;;;;;2.92;1.25;;;24.80;53.70;;;;;;4954732;28;20035;-77
2021/06/24 13:24:41;;;;;;;1.27;0.80;;;24.80;53.00;;;;;;4954514;28;20431;-77
2021/06/24 13:27:16;;;;;;;2.67;0.90;;;24.90;53.10;;;;;;4954752;28;20086;-77
2021/06/24 13:30:09;;;;;;;3.95;1.00;;;24.90;52.70;;;;;;4954521;28;20406;-77
2021/06/24 13:32:38;;;;;;;1.38;0.90;;;24.90;53.40;;;;;;4954671;28;20027;-77
2021/06/24 13:35:24;;;;;;;1.63;0.80;;;24.90;53.10;;;;;;4954344;28;20035;-77
2021/06/24 13:37:55;;;;;;;2.38;0.73;;;24.80;52.90;;;;;;4954411;28;20206;-77
2021/06/24 13:40:24;;;;;;;1.63;0.80;;;24.80;52.80;;;;;;4954526;28;20042;-77
2021/06/24 13:42:55;;;;;;;2.88;0.75;;;24.70;52.90;;;;;;4954137;28;20020;-77